Terminal Aerodrome Forecast
Issued by NWS

Home | Current Version | Previous Version | Text Only | Print | Product List | Glossary On
Versions: 1 2 3 4 5 6 7 8 9 10 11 12 13
331
FTUS42 TJSJ 281740
TAFIST
TAF
TIST 281740Z 2818/2918 13012KT P6SM VCSH SCT025 BKN035 BKN050
     FM282300 09008KT P6SM FEW025
     FM291300 12012KT P6SM VCSH SCT025=

USA.gov is the U.S. government's official web portal to all federal, state and local government web resources and services.